Time;durP1;ratioP1;P1;durP2;ratioP2;P2;SDS_P1;SDS_P2;PMS_P1;PMS_P2;Temp;Humidity;BMP_temperature;BMP_pressure;BME280_temperature;BME280_humidity;BME280_pressure;Samples;Min_cycle;Max_cycle;Signal;HPM_P1;HPM_P2
2021/11/22 00:01:49;;;;;;;;;;;4.70;99.90;;;;;;5032570;28;19925;-78
2021/11/22 00:04:16;;;;;;;;;;;5.00;99.90;;;;;;5029817;28;20023;-80
2021/11/22 00:06:43;;;;;;;;;;;4.90;99.90;;;;;;5050043;28;19947;-80
2021/11/22 00:09:11;;;;;;;;;;;5.00;99.90;;;;;;5038483;28;19965;-80
2021/11/22 00:11:38;;;;;;;;;;;5.00;99.90;;;;;;5038476;28;19988;-79
2021/11/22 00:14:04;;;;;;;;;;;5.00;99.90;;;;;;5034177;28;19929;-79
2021/11/22 00:16:31;;;;;;;;;;;5.00;99.90;;;;;;5034048;28;20273;-79
2021/11/22 00:18:58;;;;;;;;;;;5.10;99.90;;;;;;5035211;28;19948;-79
2021/11/22 00:21:24;;;;;;;;;;;5.10;99.90;;;;;;5032167;28;20011;-79
2021/11/22 00:23:51;;;;;;;;;;;5.10;99.90;;;;;;5038590;28;19925;-78
2021/11/22 00:26:19;;;;;;;;;;;5.10;99.90;;;;;;5034286;28;19987;-79
2021/11/22 00:28:46;;;;;;;;;;;5.00;99.90;;;;;;5032259;28;19965;-78
2021/11/22 00:31:12;;;;;;;;;;;5.10;99.90;;;;;;5018758;28;19933;-79
2021/11/22 00:33:42;;;;;;;;;;;5.10;99.90;;;;;;5036605;28;20016;-79
2021/11/22 00:36:09;;;;;;;;;;;5.10;99.90;;;;;;5033097;28;19925;-79
2021/11/22 00:38:35;;;;;;;;;;;5.00;99.90;;;;;;5026350;28;19955;-79
2021/11/22 00:41:02;;;;;;;;;;;5.10;99.90;;;;;;5039058;28;20016;-79
2021/11/22 00:43:30;;;;;;;;;;;5.10;99.90;;;;;;5032952;28;19989;-79
2021/11/22 00:45:57;;;;;;;;;;;5.10;99.90;;;;;;5036974;28;19939;-79
2021/11/22 00:48:24;;;;;;;;;;;5.10;99.90;;;;;;5035783;28;20008;-78
2021/11/22 00:50:51;;;;;;;;;;;5.00;99.90;;;;;;5035924;28;20016;-79
2021/11/22 00:53:18;;;;;;;;;;;5.00;99.90;;;;;;5029466;28;19960;-78
2021/11/22 00:55:45;;;;;;;;;;;5.00;99.90;;;;;;5027463;28;20059;-79
2021/11/22 00:58:11;;;;;;;;;;;5.00;99.90;;;;;;5034694;28;19979;-79
2021/11/22 01:00:40;;;;;;;;;;;5.10;99.90;;;;;;5027229;28;19925;-78
2021/11/22 01:03:07;;;;;;;;;;;5.20;99.90;;;;;;5035184;28;19932;-79
2021/11/22 01:05:34;;;;;;;;;;;5.00;99.90;;;;;;5025946;28;19925;-79
2021/11/22 01:08:01;;;;;;;;;;;5.00;99.90;;;;;;5034327;28;19981;-78
2021/11/22 01:10:27;;;;;;;;;;;5.00;99.90;;;;;;5021449;28;19925;-78
2021/11/22 01:12:54;;;;;;;;;;;4.90;99.90;;;;;;5027837;28;20432;-78
2021/11/22 01:15:22;;;;;;;;;;;4.90;99.90;;;;;;5024732;28;20372;-78
2021/11/22 01:17:52;;;;;;;;;;;5.00;99.90;;;;;;5026421;28;19925;-78
2021/11/22 01:20:21;;;;;;;;;;;4.90;99.90;;;;;;5031086;28;19931;-79
2021/11/22 01:22:47;;;;;;;;;;;4.90;99.90;;;;;;5049110;28;19933;-81
2021/11/22 01:25:15;;;;;;;;;;;4.90;99.90;;;;;;5051904;28;19948;-80
2021/11/22 01:27:41;;;;;;;;;;;4.80;99.90;;;;;;5041503;28;19933;-80
2021/11/22 01:30:11;;;;;;;;;;;4.80;99.90;;;;;;5055427;28;19960;-80
2021/11/22 01:32:38;;;;;;;;;;;4.80;99.90;;;;;;5057074;28;19909;-82
2021/11/22 01:35:06;;;;;;;;;;;4.70;99.90;;;;;;5056033;28;19941;-81
2021/11/22 01:37:33;;;;;;;;;;;4.70;99.90;;;;;;5054129;28;19910;-77
2021/11/22 01:40:00;;;;;;;;;;;4.70;99.90;;;;;;5050982;28;20015;-79
2021/11/22 01:42:26;;;;;;;;;;;4.70;99.90;;;;;;5045296;28;19933;-79
2021/11/22 01:44:53;;;;;;;;;;;4.70;99.90;;;;;;5037213;28;19972;-79
2021/11/22 01:47:20;;;;;;;;;;;4.70;99.90;;;;;;5032877;28;19965;-78
2021/11/22 01:49:46;;;;;;;;;;;4.60;99.90;;;;;;5045598;28;19972;-79
2021/11/22 01:52:14;;;;;;;;;;;4.60;99.90;;;;;;5045338;28;19925;-80
2021/11/22 01:54:41;;;;;;;;;;;4.60;99.90;;;;;;5046619;28;19929;-80
2021/11/22 01:57:08;;;;;;;;;;;4.70;99.90;;;;;;5054211;28;19917;-75
2021/11/22 01:59:34;;;;;;;;;;;4.60;99.90;;;;;;5029858;22;19933;-79
2021/11/22 02:02:03;;;;;;;;;;;4.80;99.90;;;;;;5011896;28;19910;-80
2021/11/22 02:04:30;;;;;;;;;;;4.50;99.90;;;;;;4992362;28;20528;-80
2021/11/22 02:06:57;;;;;;;;;;;4.50;99.90;;;;;;4976103;28;19930;-81
2021/11/22 02:09:25;;;;;;;;;;;4.50;99.90;;;;;;4979025;28;19910;-80
2021/11/22 02:11:52;;;;;;;;;;;4.50;99.90;;;;;;4976986;28;19938;-81
2021/11/22 02:14:19;;;;;;;;;;;4.60;99.90;;;;;;4962549;28;19915;-81
2021/11/22 02:16:46;;;;;;;;;;;4.50;99.90;;;;;;5066342;28;19936;-81
2021/11/22 02:19:13;;;;;;;;;;;4.50;99.90;;;;;;5027448;28;19926;-80
2021/11/22 02:21:43;;;;;;;;;;;4.50;99.90;;;;;;4975774;28;19910;-80
2021/11/22 02:24:10;;;;;;;;;;;4.50;99.90;;;;;;4988291;28;19911;-80
2021/11/22 02:26:37;;;;;;;;;;;4.50;99.90;;;;;;5020332;28;19933;-80
2021/11/22 02:29:04;;;;;;;;;;;4.60;99.90;;;;;;4961296;28;19970;-80
2021/11/22 02:31:31;;;;;;;;;;;4.60;99.90;;;;;;4962113;29;19969;-80
2021/11/22 02:33:58;;;;;;;;;;;4.50;99.90;;;;;;4964189;28;19931;-81
2021/11/22 02:36:25;;;;;;;;;;;4.50;99.90;;;;;;4980732;28;19917;-81
2021/11/22 02:38:53;;;;;;;;;;;4.50;99.90;;;;;;4971122;28;19932;-80
2021/11/22 02:41:20;;;;;;;;;;;4.60;99.90;;;;;;4967864;28;20318;-80
2021/11/22 02:43:47;;;;;;;;;;;4.50;99.90;;;;;;4973290;28;19933;-80
2021/11/22 02:46:15;;;;;;;;;;;4.50;99.90;;;;;;5044040;28;19924;-80
2021/11/22 02:48:42;;;;;;;;;;;4.50;99.90;;;;;;5037451;28;19934;-81
2021/11/22 02:51:09;;;;;;;;;;;4.50;99.90;;;;;;4968556;28;19934;-81
2021/11/22 02:53:37;;;;;;;;;;;4.40;99.90;;;;;;4975343;28;19910;-80
2021/11/22 02:56:07;;;;;;;;;;;4.60;99.90;;;;;;4969641;28;19953;-76
2021/11/22 03:01:03;;;;;;;;;;;4.30;99.90;;;;;;5129414;23;19909;-80
2021/11/22 03:03:31;;;;;;;;;;;4.30;99.90;;;;;;5074905;28;19925;-76
2021/11/22 03:06:01;;;;;;;;;;;4.30;99.90;;;;;;5070504;28;19916;-70
2021/11/22 03:08:28;;;;;;;;;;;4.20;99.90;;;;;;5079251;28;19909;-71
2021/11/22 03:10:55;;;;;;;;;;;4.10;99.90;;;;;;5078991;28;19909;-73
2021/11/22 03:13:23;;;;;;;;;;;4.10;99.90;;;;;;5078454;28;19916;-78
2021/11/22 03:15:50;;;;;;;;;;;4.10;99.90;;;;;;5077570;28;19924;-79
2021/11/22 03:18:17;;;;;;;;;;;4.20;99.90;;;;;;5076587;28;19925;-79
2021/11/22 03:20:44;;;;;;;;;;;4.20;99.90;;;;;;5053247;28;20360;-79
2021/11/22 03:23:11;;;;;;;;;;;4.20;99.90;;;;;;5023603;28;19936;-79
2021/11/22 03:25:37;;;;;;;;;;;4.20;99.90;;;;;;5045825;28;19968;-79
2021/11/22 03:28:04;;;;;;;;;;;4.10;99.90;;;;;;5029299;28;20308;-79
2021/11/22 03:30:33;;;;;;;;;;;4.30;99.90;;;;;;5051988;28;19925;-80
2021/11/22 03:33:00;;;;;;;;;;;4.20;99.90;;;;;;5051308;28;20354;-79
2021/11/22 03:35:27;;;;;;;;;;;4.30;99.90;;;;;;5044930;28;19926;-79
2021/11/22 03:37:54;;;;;;;;;;;4.30;99.90;;;;;;5038924;28;20346;-79
2021/11/22 03:40:21;;;;;;;;;;;4.20;99.90;;;;;;5040294;28;19980;-80
2021/11/22 03:42:59;;;;;;;;;;;4.20;99.90;;;;;;5029467;28;19926;-78
2021/11/22 03:45:26;;;;;;;;;;;4.20;99.90;;;;;;5041905;28;20396;-79
2021/11/22 03:47:54;;;;;;;;;;;4.20;99.90;;;;;;5042329;28;19988;-80
2021/11/22 03:50:21;;;;;;;;;;;4.30;99.90;;;;;;5041403;28;19985;-79
2021/11/22 03:52:47;;;;;;;;;;;4.20;99.90;;;;;;5033364;28;20020;-79
2021/11/22 03:55:14;;;;;;;;;;;4.20;99.90;;;;;;5028080;28;20265;-80
2021/11/22 03:57:41;;;;;;;;;;;4.10;99.90;;;;;;5055174;28;19977;-81
2021/11/22 04:00:08;;;;;;;;;;;4.20;99.90;;;;;;5042904;28;19956;-80
2021/11/22 04:02:35;;;;;;;;;;;4.10;99.90;;;;;;5053387;28;19968;-80
2021/11/22 04:05:03;;;;;;;;;;;4.20;99.90;;;;;;5053034;28;19986;-80
2021/11/22 04:07:30;;;;;;;;;;;4.10;99.90;;;;;;5046253;28;19925;-80
2021/11/22 04:09:57;;;;;;;;;;;4.10;99.90;;;;;;5040762;28;19980;-80
2021/11/22 04:12:24;;;;;;;;;;;4.00;99.90;;;;;;5049972;28;19975;-80
2021/11/22 04:14:51;;;;;;;;;;;4.00;99.90;;;;;;5046809;28;19932;-80
2021/11/22 04:17:18;;;;;;;;;;;4.00;99.90;;;;;;5050004;28;19980;-80
2021/11/22 04:19:45;;;;;;;;;;;4.00;99.90;;;;;;5036131;28;20027;-80
2021/11/22 04:22:13;;;;;;;;;;;3.90;99.90;;;;;;5038415;28;19976;-80
2021/11/22 04:24:39;;;;;;;;;;;3.80;99.90;;;;;;5046761;28;19972;-80
2021/11/22 04:27:09;;;;;;;;;;;3.90;99.90;;;;;;5044887;28;19925;-80
2021/11/22 04:29:35;;;;;;;;;;;3.80;99.90;;;;;;5041707;28;19992;-80
2021/11/22 04:32:02;;;;;;;;;;;3.90;99.90;;;;;;5044444;28;20028;-80
2021/11/22 04:34:29;;;;;;;;;;;4.00;99.90;;;;;;5043303;28;19932;-80
2021/11/22 04:36:55;;;;;;;;;;;4.00;99.90;;;;;;5049618;28;19936;-81
2021/11/22 04:39:24;;;;;;;;;;;3.90;99.90;;;;;;5045288;28;19943;-81
2021/11/22 04:41:50;;;;;;;;;;;3.80;99.90;;;;;;5051067;28;19968;-81
2021/11/22 04:44:17;;;;;;;;;;;3.90;99.90;;;;;;5058694;28;19948;-81
2021/11/22 04:46:44;;;;;;;;;;;3.80;99.90;;;;;;5058618;28;19940;-78
2021/11/22 04:49:10;;;;;;;;;;;3.80;99.90;;;;;;5048649;28;19932;-81
2021/11/22 04:51:37;;;;;;;;;;;3.70;99.90;;;;;;5053554;28;19913;-76
2021/11/22 04:54:04;;;;;;;;;;;3.80;99.90;;;;;;5050814;28;19925;-80
2021/11/22 04:56:32;;;;;;;;;;;3.80;99.90;;;;;;5057841;28;19925;-80
2021/11/22 04:58:59;;;;;;;;;;;3.80;99.90;;;;;;5046500;28;19961;-80
2021/11/22 05:01:25;;;;;;;;;;;3.80;99.90;;;;;;5056017;28;19948;-81
2021/11/22 05:03:52;;;;;;;;;;;3.80;99.90;;;;;;5049098;28;19932;-80
2021/11/22 05:06:18;;;;;;;;;;;3.80;99.90;;;;;;5040902;28;20000;-80
2021/11/22 05:08:45;;;;;;;;;;;3.80;99.90;;;;;;5046480;28;19961;-80
2021/11/22 05:11:12;;;;;;;;;;;3.80;99.90;;;;;;5043457;28;20024;-79
2021/11/22 05:13:40;;;;;;;;;;;3.70;99.90;;;;;;5041233;28;19952;-79
2021/11/22 05:16:07;;;;;;;;;;;3.70;99.90;;;;;;5044933;28;20028;-79
2021/11/22 05:18:33;;;;;;;;;;;3.80;99.90;;;;;;5039166;28;19984;-80
2021/11/22 05:21:00;;;;;;;;;;;3.80;99.90;;;;;;5046426;28;19960;-80
2021/11/22 05:23:27;;;;;;;;;;;3.80;99.90;;;;;;5037664;28;20537;-81
2021/11/22 05:25:53;;;;;;;;;;;3.90;99.90;;;;;;5040916;28;19969;-81
2021/11/22 05:28:21;;;;;;;;;;;3.80;99.90;;;;;;5040809;28;20015;-81
2021/11/22 05:30:49;;;;;;;;;;;3.80;99.90;;;;;;5049579;28;19953;-81
2021/11/22 05:33:16;;;;;;;;;;;3.90;99.90;;;;;;5040101;28;19992;-81
2021/11/22 05:35:43;;;;;;;;;;;3.80;99.90;;;;;;5043611;28;19925;-81
2021/11/22 05:38:09;;;;;;;;;;;3.80;99.90;;;;;;5056631;28;19945;-74
2021/11/22 05:43:09;;;;;;;;;;;3.80;99.90;;;;;;5087157;28;19932;-80
2021/11/22 05:45:36;;;;;;;;;;;3.80;99.90;;;;;;5098208;28;19908;-79
2021/11/22 05:48:07;;;;;;;;;;;3.60;99.90;;;;;;5092467;28;19920;-80
2021/11/22 05:50:34;;;;;;;;;;;3.60;99.90;;;;;;5072468;28;20081;-79
2021/11/22 05:53:02;;;;;;;;;;;3.60;99.90;;;;;;5076914;28;19925;-80
2021/11/22 05:55:37;;;;;;;;;;;4.10;99.90;;;;;;5074169;28;19924;-81
2021/11/22 05:58:05;;;;;;;;;;;3.60;99.90;;;;;;5077715;28;19925;-76
2021/11/22 06:00:32;;;;;;;;;;;3.60;99.90;;;;;;5062545;28;19912;-80
2021/11/22 06:02:59;;;;;;;;;;;3.50;99.90;;;;;;5074190;28;19932;-82
2021/11/22 06:05:27;;;;;;;;;;;3.50;99.90;;;;;;5075615;28;19909;-80
2021/11/22 06:07:54;;;;;;;;;;;4.10;99.90;;;;;;5078440;28;19928;-80
2021/11/22 06:10:21;;;;;;;;;;;3.50;99.90;;;;;;5066441;28;19932;-76
2021/11/22 06:12:47;;;;;;;;;;;3.50;99.90;;;;;;5049558;28;20013;-76
2021/11/22 06:15:14;;;;;;;;;;;3.50;99.90;;;;;;5044129;28;19935;-77
2021/11/22 06:17:41;;;;;;;;;;;3.60;99.90;;;;;;5051763;28;20419;-77
2021/11/22 06:20:08;;;;;;;;;;;3.60;99.90;;;;;;5045652;28;19931;-76
2021/11/22 06:22:36;;;;;;;;;;;3.50;99.90;;;;;;5041944;28;20038;-77
2021/11/22 06:25:04;;;;;;;;;;;3.50;99.90;;;;;;5051187;28;20050;-77
2021/11/22 06:27:30;;;;;;;;;;;3.60;99.90;;;;;;5035416;28;19924;-76
2021/11/22 06:29:57;;;;;;;;;;;3.60;99.90;;;;;;5032605;28;19969;-76
2021/11/22 06:32:25;;;;;;;;;;;3.60;99.90;;;;;;5036710;28;20413;-77
2021/11/22 06:34:52;;;;;;;;;;;3.60;99.90;;;;;;5035526;28;19952;-77
2021/11/22 06:37:19;;;;;;;;;;;3.60;99.90;;;;;;5032919;28;20319;-76
2021/11/22 06:39:47;;;;;;;;;;;3.50;99.90;;;;;;5049437;28;19984;-77
2021/11/22 06:42:13;;;;;;;;;;;3.50;99.90;;;;;;5038414;28;19931;-77
2021/11/22 06:44:40;;;;;;;;;;;3.50;99.90;;;;;;5038160;28;19964;-77
2021/11/22 06:47:07;;;;;;;;;;;3.40;99.90;;;;;;5041061;28;20472;-78
2021/11/22 06:49:33;;;;;;;;;;;3.40;99.90;;;;;;5033821;28;20473;-77
2021/11/22 06:52:00;;;;;;;;;;;3.40;99.90;;;;;;5039282;28;20011;-77
2021/11/22 06:54:27;;;;;;;;;;;3.40;99.90;;;;;;5046868;28;19925;-77
2021/11/22 06:56:55;;;;;;;;;;;3.40;99.90;;;;;;5047184;28;20019;-77
2021/11/22 06:59:22;;;;;;;;;;;3.30;99.90;;;;;;5041987;28;20055;-77
2021/11/22 07:01:49;;;;;;;;;;;3.30;99.90;;;;;;5057928;28;19970;-77
2021/11/22 07:04:16;;;;;;;;;;;3.30;99.90;;;;;;5046811;28;19925;-77
2021/11/22 07:06:42;;;;;;;;;;;3.30;99.90;;;;;;5045125;28;19931;-77
2021/11/22 07:09:09;;;;;;;;;;;3.40;99.90;;;;;;5045183;28;19925;-77
2021/11/22 07:11:36;;;;;;;;;;;3.30;99.90;;;;;;5055508;28;19925;-78
2021/11/22 07:14:05;;;;;;;;;;;3.20;99.90;;;;;;5049124;28;20384;-77
2021/11/22 07:16:32;;;;;;;;;;;3.30;99.90;;;;;;5045392;28;19929;-77
2021/11/22 07:18:59;;;;;;;;;;;3.20;99.90;;;;;;5042629;28;19964;-75
2021/11/22 07:21:26;;;;;;;;;;;3.20;99.90;;;;;;5047207;28;20367;-78
2021/11/22 07:23:52;;;;;;;;;;;3.20;99.90;;;;;;5054612;28;19947;-78
2021/11/22 07:26:20;;;;;;;;;;;3.10;99.90;;;;;;5046836;28;19932;-77
2021/11/22 07:28:46;;;;;;;;;;;3.20;99.90;;;;;;5050801;28;20016;-77
2021/11/22 07:31:14;;;;;;;;;;;3.20;99.90;;;;;;5043766;28;20384;-78
2021/11/22 07:33:41;;;;;;;;;;;3.20;99.90;;;;;;5050705;28;19932;-78
2021/11/22 07:36:08;;;;;;;;;;;3.20;99.90;;;;;;5053282;28;19925;-78
2021/11/22 07:38:36;;;;;;;;;;;3.10;99.90;;;;;;5050706;28;19929;-79
2021/11/22 07:41:03;;;;;;;;;;;3.10;99.90;;;;;;5044047;28;19931;-78
2021/11/22 07:43:30;;;;;;;;;;;3.10;99.90;;;;;;5043533;28;19948;-79
2021/11/22 07:45:58;;;;;;;;;;;3.10;99.90;;;;;;5043923;28;19929;-80
2021/11/22 07:48:27;;;;;;;;;;;3.10;99.90;;;;;;5044084;28;19979;-78
2021/11/22 07:50:54;;;;;;;;;;;3.10;99.90;;;;;;5053642;28;19940;-77
2021/11/22 07:53:21;;;;;;;;;;;3.20;99.90;;;;;;5041701;28;19929;-79
2021/11/22 07:55:48;;;;;;;;;;;3.20;99.90;;;;;;5041055;28;19955;-78
2021/11/22 07:58:15;;;;;;;;;;;3.20;99.90;;;;;;5044395;28;20449;-79
2021/11/22 08:00:41;;;;;;;;;;;3.20;99.90;;;;;;5047733;28;19936;-78
2021/11/22 08:03:10;;;;;;;;;;;3.20;99.90;;;;;;5042863;28;19960;-79
2021/11/22 08:05:38;;;;;;;;;;;3.20;99.90;;;;;;5051214;28;20006;-78
2021/11/22 08:08:06;;;;;;;;;;;3.20;99.90;;;;;;5045029;28;19929;-78
2021/11/22 08:10:34;;;;;;;;;;;3.10;99.90;;;;;;5048474;28;19969;-79
2021/11/22 08:13:02;;;;;;;;;;;3.20;99.90;;;;;;5053931;28;19933;-79
2021/11/22 08:15:30;;;;;;;;;;;3.20;99.90;;;;;;5049330;28;19925;-78
2021/11/22 08:17:58;;;;;;;;;;;3.30;99.90;;;;;;5048585;28;20351;-77
2021/11/22 08:20:25;;;;;;;;;;;3.90;99.90;;;;;;5048909;28;19959;-78
2021/11/22 08:22:53;;;;;;;;;;;4.50;99.90;;;;;;5045294;28;20448;-77
2021/11/22 08:25:21;;;;;;;;;;;4.90;99.90;;;;;;5044489;28;20404;-78
2021/11/22 08:27:49;;;;;;;;;;;5.10;99.90;;;;;;5042537;28;20592;-78
2021/11/22 08:30:17;;;;;;;;;;;5.00;99.90;;;;;;5045351;28;19955;-77
2021/11/22 08:32:45;;;;;;;;;;;5.00;99.90;;;;;;5040296;28;19926;-78
2021/11/22 08:35:12;;;;;;;;;;;5.20;99.90;;;;;;5042911;28;19925;-78
2021/11/22 08:37:39;;;;;;;;;;;5.40;99.90;;;;;;5046247;28;19970;-77
2021/11/22 08:40:08;;;;;;;;;;;5.80;99.90;;;;;;5045031;28;19964;-78
2021/11/22 08:42:35;;;;;;;;;;;5.80;99.90;;;;;;5048263;28;20011;-78
2021/11/22 08:45:03;;;;;;;;;;;5.80;99.90;;;;;;5045552;28;20401;-78
2021/11/22 08:47:29;;;;;;;;;;;6.00;99.90;;;;;;5046963;28;19925;-80
2021/11/22 08:49:56;;;;;;;;;;;6.00;99.90;;;;;;5060352;28;19951;-79
2021/11/22 08:52:23;;;;;;;;;;;5.90;99.90;;;;;;5068191;28;19925;-80
2021/11/22 08:54:50;;;;;;;;;;;6.30;99.90;;;;;;5060336;28;20025;-80
2021/11/22 08:57:18;;;;;;;;;;;6.30;99.90;;;;;;5048278;28;20004;-78
2021/11/22 08:59:45;;;;;;;;;;;6.20;99.90;;;;;;5045132;28;19924;-78
2021/11/22 09:02:12;;;;;;;;;;;6.00;99.90;;;;;;5045445;28;19960;-78
2021/11/22 09:04:39;;;;;;;;;;;6.30;99.90;;;;;;5038157;28;21976;-77
2021/11/22 09:07:07;;;;;;;;;;;6.30;99.90;;;;;;5052141;28;19979;-78
2021/11/22 09:09:34;;;;;;;;;;;6.20;99.90;;;;;;5051119;28;19924;-78
2021/11/22 09:12:00;;;;;;;;;;;6.00;99.90;;;;;;5047373;28;19975;-78
2021/11/22 09:14:28;;;;;;;;;;;5.30;99.90;;;;;;5051227;28;19948;-77
2021/11/22 09:16:55;;;;;;;;;;;4.90;99.90;;;;;;5043637;28;20016;-78
2021/11/22 09:19:22;;;;;;;;;;;4.70;99.90;;;;;;5045861;28;19989;-78
2021/11/22 09:21:49;;;;;;;;;;;4.70;99.90;;;;;;5042102;28;20388;-78
2021/11/22 09:24:16;;;;;;;;;;;4.70;99.90;;;;;;5047614;28;19992;-78
2021/11/22 09:26:42;;;;;;;;;;;4.80;99.90;;;;;;5050964;28;20012;-77
2021/11/22 09:29:09;;;;;;;;;;;4.70;99.90;;;;;;5040638;28;19931;-78
2021/11/22 09:31:37;;;;;;;;;;;4.80;99.90;;;;;;5047142;28;19929;-76
2021/11/22 09:34:04;;;;;;;;;;;4.80;99.90;;;;;;5045850;28;20428;-78
2021/11/22 09:36:30;;;;;;;;;;;4.90;99.90;;;;;;5052916;28;20019;-78
2021/11/22 09:38:57;;;;;;;;;;;5.00;99.90;;;;;;5046560;28;20020;-77
2021/11/22 09:41:27;;;;;;;;;;;5.00;99.90;;;;;;5051059;28;19925;-78
2021/11/22 09:43:54;;;;;;;;;;;5.00;99.90;;;;;;5039857;28;20284;-78
2021/11/22 09:46:20;;;;;;;;;;;5.10;99.90;;;;;;5047480;28;20020;-78
2021/11/22 09:48:48;;;;;;;;;;;5.10;99.90;;;;;;5044327;28;19931;-78
2021/11/22 09:51:15;;;;;;;;;;;5.10;99.90;;;;;;5057726;28;19956;-78
2021/11/22 09:53:42;;;;;;;;;;;5.10;99.90;;;;;;5046134;28;20446;-79
2021/11/22 09:56:09;;;;;;;;;;;5.20;99.90;;;;;;5048646;28;20016;-79
2021/11/22 09:58:36;;;;;;;;;;;5.20;99.90;;;;;;5049851;28;19978;-77
2021/11/22 10:01:05;;;;;;;;;;;5.40;99.90;;;;;;5045739;28;20618;-77
2021/11/22 10:03:32;;;;;;;;;;;5.40;99.90;;;;;;5044864;28;19976;-77
2021/11/22 10:06:01;;;;;;;;;;;5.40;99.90;;;;;;5044009;28;19925;-78
2021/11/22 10:08:28;;;;;;;;;;;5.50;99.90;;;;;;5048142;28;19928;-78
2021/11/22 10:10:55;;;;;;;;;;;5.50;99.90;;;;;;5041764;28;20078;-78
2021/11/22 10:13:27;;;;;;;;;;;5.60;99.90;;;;;;5052400;28;19931;-78
2021/11/22 10:15:54;;;;;;;;;;;5.70;99.90;;;;;;5039647;28;19934;-78
2021/11/22 10:18:23;;;;;;;;;;;5.70;99.90;;;;;;5055113;28;19972;-79
2021/11/22 10:20:50;;;;;;;;;;;5.80;99.90;;;;;;5062325;28;19968;-79
2021/11/22 10:23:22;;;;;;;;;;;5.70;99.90;;;;;;5056621;28;19929;-78
2021/11/22 10:25:49;;;;;;;;;;;5.80;99.90;;;;;;5057942;28;20359;-78
2021/11/22 10:28:17;;;;;;;;;;;5.80;99.90;;;;;;5048091;28;19968;-78
2021/11/22 10:30:44;;;;;;;;;;;5.90;99.90;;;;;;5052951;28;19936;-79
2021/11/22 10:33:12;;;;;;;;;;;6.00;99.90;;;;;;5052542;28;19932;-78
2021/11/22 10:35:40;;;;;;;;;;;6.00;99.90;;;;;;5046616;28;19971;-79
2021/11/22 10:38:10;;;;;;;;;;;6.00;99.90;;;;;;5047681;28;20368;-78
2021/11/22 10:40:43;;;;;;;;;;;6.10;99.90;;;;;;5042686;28;19925;-78
2021/11/22 10:43:10;;;;;;;;;;;6.20;99.90;;;;;;5043090;28;19935;-79
2021/11/22 10:45:38;;;;;;;;;;;6.10;99.90;;;;;;5040139;28;19925;-78
2021/11/22 10:48:10;;;;;;;;;;;6.00;99.90;;;;;;5049569;28;20001;-80
2021/11/22 10:50:46;;;;;;;;;;;6.20;99.90;;;;;;5055515;28;19925;-79
2021/11/22 10:53:13;;;;;;;;;;;6.20;99.90;;;;;;5056785;28;19932;-80
2021/11/22 10:55:48;;;;;;;;;;;6.20;99.90;;;;;;5051519;28;19925;-79
2021/11/22 10:58:29;;;;;;;;;;;6.30;99.90;;;;;;5057343;28;20011;-79
2021/11/22 11:00:56;;;;;;;;;;;6.30;99.90;;;;;;5053386;28;20008;-80
2021/11/22 11:03:27;;;;;;;;;;;6.40;99.90;;;;;;5053097;28;20024;-78
2021/11/22 11:05:57;;;;;;;;;;;6.40;99.90;;;;;;5054307;28;19972;-79
2021/11/22 11:08:28;;;;;;;;;;;6.30;99.90;;;;;;5055362;28;19931;-79
2021/11/22 11:11:09;;;;;;;;;;;6.40;99.90;;;;;;5061004;28;19933;-79
2021/11/22 11:13:43;;;;;;;;;;;6.60;99.90;;;;;;5064674;28;19924;-80
2021/11/22 11:16:10;;;;;;;;;;;6.60;99.90;;;;;;5052193;28;19985;-79
2021/11/22 11:18:37;;;;;;;;;;;6.60;99.90;;;;;;5060859;28;19925;-80
2021/11/22 11:21:04;;;;;;;;;;;6.70;99.90;;;;;;5060927;28;19947;-81
2021/11/22 11:23:30;;;;;;;;;;;6.80;99.90;;;;;;5060430;28;19925;-78
2021/11/22 11:25:57;;;;;;;;;;;6.70;99.90;;;;;;5037251;28;19944;-75
2021/11/22 11:28:25;;;;;;;;;;;6.60;99.90;;;;;;5049580;28;19925;-74
2021/11/22 11:30:52;;;;;;;;;;;6.80;99.90;;;;;;5040084;28;19931;-75
2021/11/22 11:33:19;;;;;;;;;;;6.70;99.90;;;;;;5048753;28;19931;-75
2021/11/22 11:35:47;;;;;;;;;;;6.80;99.90;;;;;;5043782;28;19931;-75
2021/11/22 11:38:20;;;;;;;;;;;6.70;99.90;;;;;;5050027;28;19925;-73
2021/11/22 11:40:57;;;;;;;;;;;6.80;99.90;;;;;;5047825;28;20414;-73
2021/11/22 11:43:39;;;;;;;;;;;6.80;99.90;;;;;;5050538;28;19970;-74
2021/11/22 11:46:10;;;;;;;;;;;6.90;99.90;;;;;;5050363;28;19947;-73
2021/11/22 11:48:46;;;;;;;;;;;7.00;99.90;;;;;;5044207;28;19925;-74
2021/11/22 11:51:14;;;;;;;;;;;6.90;99.90;;;;;;5050668;28;20377;-73
2021/11/22 11:54:04;;;;;;;;;;;6.90;99.90;;;;;;5048529;28;20375;-73
2021/11/22 11:56:31;;;;;;;;;;;7.00;99.90;;;;;;5038571;28;20298;-74
2021/11/22 11:59:13;;;;;;;;;;;6.90;99.90;;;;;;5045571;28;19931;-74
2021/11/22 12:01:54;;;;;;;;;;;6.90;99.90;;;;;;5044354;28;19924;-73
2021/11/22 12:04:28;;;;;;;;;;;6.90;99.90;;;;;;5041371;28;20035;-74
2021/11/22 12:06:58;;;;;;;;;;;6.90;99.90;;;;;;5048801;28;19928;-76
2021/11/22 12:09:32;;;;;;;;;;;7.10;99.90;;;;;;5037678;28;19924;-77
2021/11/22 12:12:20;;;;;;;;;;;7.20;99.90;;;;;;5043463;28;20008;-76
2021/11/22 12:14:56;;;;;;;;;;;7.20;99.90;;;;;;5038793;28;19932;-77
2021/11/22 12:17:42;;;;;;;;;;;7.30;99.40;;;;;;5047344;28;19982;-77
2021/11/22 12:20:09;;;;;;;;;;;7.20;99.70;;;;;;5041552;28;19994;-78
2021/11/22 12:22:37;;;;;;;;;;;7.20;99.90;;;;;;5050117;28;19964;-75
2021/11/22 12:25:05;;;;;;;;;;;7.20;99.50;;;;;;5045776;28;19932;-78
2021/11/22 12:27:35;;;;;;;;;;;7.20;99.90;;;;;;5062517;28;20019;-80
2021/11/22 12:30:23;;;;;;;;;;;7.20;99.90;;;;;;5054033;28;19925;-78
2021/11/22 12:32:50;;;;;;;;;;;7.20;99.90;;;;;;5056667;28;19955;-79
2021/11/22 12:35:17;;;;;;;;;;;7.30;99.30;;;;;;5048000;28;20012;-79
2021/11/22 12:37:43;;;;;;;;;;;7.30;99.10;;;;;;5045466;28;19933;-79
2021/11/22 12:40:11;;;;;;;;;;;7.30;98.40;;;;;;5055280;28;19972;-78
2021/11/22 12:42:45;;;;;;;;;;;7.50;99.30;;;;;;5057620;28;20020;-79
2021/11/22 12:45:13;;;;;;;;;;;7.50;99.50;;;;;;5062134;28;20011;-81
2021/11/22 12:47:40;;;;;;;;;;;7.40;98.80;;;;;;5058456;28;19932;-82
2021/11/22 12:50:08;;;;;;;;;;;7.50;98.70;;;;;;5063310;28;19952;-80
2021/11/22 12:52:36;;;;;;;;;;;7.50;98.70;;;;;;5063503;28;19909;-78
2021/11/22 12:55:05;;;;;;;;;;;7.40;98.50;;;;;;5060959;28;19947;-79
2021/11/22 12:57:33;;;;;;;;;;;7.50;97.70;;;;;;5057209;28;20407;-80
2021/11/22 13:00:11;;;;;;;;;;;7.40;96.50;;;;;;5052959;28;19937;-79
2021/11/22 13:02:43;;;;;;;;;;;7.40;96.30;;;;;;5044947;28;19936;-81
2021/11/22 13:05:10;;;;;;;;;;;7.50;96.70;;;;;;5060826;28;19932;-78
2021/11/22 13:07:46;;;;;;;;;;;7.50;95.70;;;;;;5060103;28;19909;-78
2021/11/22 13:10:28;;;;;;;;;;;7.60;95.70;;;;;;5060175;28;19996;-80
2021/11/22 13:12:56;;;;;;;;;;;7.50;94.30;;;;;;5069443;28;19932;-79
2021/11/22 13:15:32;;;;;;;;;;;7.50;92.50;;;;;;5059777;28;19964;-80
2021/11/22 13:18:04;;;;;;;;;;;7.50;91.80;;;;;;5047007;28;19925;-79
2021/11/22 13:20:36;;;;;;;;;;;7.50;92.80;;;;;;5047741;28;19925;-80
2021/11/22 13:23:10;;;;;;;;;;;7.50;92.00;;;;;;5063733;28;19925;-79
2021/11/22 13:25:38;;;;;;;;;;;7.50;90.20;;;;;;5044866;28;19931;-79
2021/11/22 13:28:08;;;;;;;;;;;7.60;92.00;;;;;;5062885;28;19950;-78
2021/11/22 13:30:35;;;;;;;;;;;7.70;92.40;;;;;;5063935;28;19925;-79
2021/11/22 13:33:02;;;;;;;;;;;7.70;91.80;;;;;;5078598;28;19920;-80
2021/11/22 13:35:30;;;;;;;;;;;7.50;89.60;;;;;;5068867;28;20504;-79
2021/11/22 13:38:08;;;;;;;;;;;7.50;89.80;;;;;;5066253;28;19971;-77
2021/11/22 13:40:38;;;;;;;;;;;7.50;89.10;;;;;;5072557;28;19925;-83
2021/11/22 13:43:06;;;;;;;;;;;7.60;89.60;;;;;;5075156;28;19909;-80
2021/11/22 13:45:32;;;;;;;;;;;7.60;88.80;;;;;;5060785;28;19924;-80
2021/11/22 13:47:59;;;;;;;;;;;7.60;88.50;;;;;;5064842;28;19925;-80
2021/11/22 13:50:27;;;;;;;;;;;7.50;90.10;;;;;;5066798;28;19940;-80
2021/11/22 13:52:55;;;;;;;;;;;7.50;90.00;;;;;;5066447;28;19916;-80
2021/11/22 13:55:22;;;;;;;;;;;7.50;90.40;;;;;;5054663;28;19972;-80
2021/11/22 13:57:49;;;;;;;;;;;7.50;91.30;;;;;;5066560;28;19949;-81
2021/11/22 14:00:17;;;;;;;;;;;7.40;91.30;;;;;;5062537;28;20407;-81
2021/11/22 14:02:44;;;;;;;;;;;7.50;91.70;;;;;;5067966;28;19932;-79
2021/11/22 14:05:12;;;;;;;;;;;7.50;92.30;;;;;;5053037;28;19932;-78
2021/11/22 14:07:43;;;;;;;;;;;7.50;91.70;;;;;;5051857;28;19925;-78
2021/11/22 14:10:11;;;;;;;;;;;7.40;90.30;;;;;;5048388;28;19931;-78
2021/11/22 14:12:38;;;;;;;;;;;7.40;90.40;;;;;;5041627;28;19928;-78
2021/11/22 14:15:17;;;;;;;;;;;7.40;90.90;;;;;;5039064;28;19932;-79
2021/11/22 14:17:47;;;;;;;;;;;7.40;91.70;;;;;;5047428;28;19932;-79
2021/11/22 14:20:15;;;;;;;;;;;7.40;90.40;;;;;;5050599;28;19978;-79
2021/11/22 14:22:42;;;;;;;;;;;7.30;90.60;;;;;;5054941;28;19979;-79
2021/11/22 14:25:17;;;;;;;;;;;7.40;91.40;;;;;;5051671;28;19972;-78
2021/11/22 14:27:45;;;;;;;;;;;7.30;90.80;;;;;;5048533;28;20439;-78
2021/11/22 14:30:14;;;;;;;;;;;7.30;91.30;;;;;;5042179;28;19951;-78
2021/11/22 14:32:41;;;;;;;;;;;7.30;91.40;;;;;;5035229;28;20024;-79
2021/11/22 14:35:16;;;;;;;;;;;7.30;92.00;;;;;;5044459;28;20290;-78
2021/11/22 14:37:44;;;;;;;;;;;7.20;92.20;;;;;;5049864;28;19931;-81
2021/11/22 14:40:11;;;;;;;;;;;7.20;91.90;;;;;;5051042;28;19924;-79
2021/11/22 14:42:38;;;;;;;;;;;7.10;92.10;;;;;;5050629;28;19924;-80